createdAt,value
2022-09-28T00:01:22.782Z,98732.84
2022-09-28T00:03:59.340Z,98730.83
2022-09-28T00:06:33.259Z,98728.84
2022-09-28T00:09:06.374Z,98730.56
2022-09-28T00:11:39.632Z,98733.70
2022-09-28T00:14:14.003Z,98715.64
2022-09-28T00:16:47.484Z,98722.48
2022-09-28T00:19:20.537Z,98720.63
2022-09-28T00:21:54.013Z,98718.85
2022-09-28T00:24:28.138Z,98719.02
2022-09-28T00:27:03.244Z,98730.29
2022-09-28T00:29:37.814Z,98732.14
2022-09-28T00:32:16.245Z,98727.60
2022-09-28T00:34:49.756Z,98729.66
2022-09-28T00:37:22.896Z,98717.45
2022-09-28T00:39:56.420Z,98721.51
2022-09-28T00:42:29.601Z,98718.58
2022-09-28T00:45:02.643Z,98721.00
2022-09-28T00:47:50.562Z,98713.55
2022-09-28T00:50:38.145Z,98712.80
2022-09-28T00:53:21.003Z,98713.61
2022-09-28T00:56:05.900Z,98706.67
2022-09-28T00:58:46.381Z,98708.73
2022-09-28T01:01:19.748Z,98690.98
2022-09-28T01:03:55.619Z,98696.36
2022-09-28T01:06:34.210Z,98691.95
2022-09-28T01:09:12.896Z,98688.69
2022-09-28T01:11:46.431Z,98696.70
2022-09-28T01:14:21.231Z,98695.60
2022-09-28T01:17:13.841Z,98696.17
2022-09-28T01:20:11.446Z,98699.50
2022-09-28T01:23:17.153Z,98700.38
2022-09-28T01:26:14.896Z,98698.67
2022-09-28T01:28:55.244Z,98703.69
2022-09-28T01:31:35.347Z,98709.46
2022-09-28T01:34:18.707Z,98699.64
2022-09-28T01:36:55.980Z,98691.06
2022-09-28T01:39:40.565Z,98698.94
2022-09-28T01:42:22.071Z,98702.02
2022-09-28T01:44:58.959Z,98706.79
2022-09-28T01:47:37.368Z,98703.94
2022-09-28T01:50:19.395Z,98704.30
2022-09-28T01:52:58.151Z,98708.02
2022-09-28T01:55:44.196Z,98697.28
2022-09-28T01:58:48.143Z,98706.64
2022-09-28T02:01:31.155Z,98705.23
2022-09-28T02:04:17.078Z,98697.33
2022-09-28T02:07:07.147Z,98698.64
2022-09-28T02:09:51.302Z,98703.39
2022-09-28T02:12:44.171Z,98708.43
2022-09-28T02:15:32.385Z,98709.95
2022-09-28T02:18:06.042Z,98709.35
2022-09-28T02:20:41.438Z,98710.47
2022-09-28T02:23:15.131Z,98703.89
2022-09-28T02:25:55.569Z,98710.11
2022-09-28T02:28:28.122Z,98722.04
2022-09-28T02:31:01.150Z,98716.08
2022-09-28T02:33:40.623Z,98721.36
2022-09-28T02:36:14.193Z,98727.64
2022-09-28T02:38:47.024Z,98732.08
2022-09-28T02:41:30.239Z,98730.69
2022-09-28T02:44:11.614Z,98729.89
2022-09-28T02:46:57.154Z,98729.81
2022-09-28T02:49:45.740Z,98725.67
2022-09-28T02:52:53.731Z,98723.41
2022-09-28T02:55:55.314Z,98721.55
2022-09-28T02:58:35.538Z,98725.94
2022-09-28T03:01:25.453Z,98731.93
2022-09-28T03:04:16.507Z,98739.06
2022-09-28T03:06:51.711Z,98744.52
2022-09-28T03:09:38.420Z,98737.99
2022-09-28T03:12:15.753Z,98745.21
2022-09-28T03:14:49.037Z,98754.86
2022-09-28T03:17:23.659Z,98747.56
2022-09-28T03:19:56.464Z,98741.27
2022-09-28T03:22:30.948Z,98748.13
2022-09-28T03:25:03.989Z,98740.54
2022-09-28T03:27:36.718Z,98721.84
2022-09-28T03:30:10.230Z,98726.17
2022-09-28T03:32:43.449Z,98714.05
2022-09-28T03:35:16.552Z,98728.84
2022-09-28T03:37:49.103Z,98737.08
2022-09-28T03:40:21.584Z,98736.27
2022-09-28T03:42:54.543Z,98730.42
2022-09-28T03:45:27.368Z,98731.23
2022-09-28T03:48:00.660Z,98725.02
2022-09-28T03:50:33.893Z,98732.64
2022-09-28T03:53:07.483Z,98738.09
2022-09-28T03:55:43.116Z,98734.35
2022-09-28T03:58:16.342Z,98740.90
2022-09-28T04:00:50.388Z,98742.01
2022-09-28T04:03:30.833Z,98742.38
2022-09-28T04:06:04.479Z,98749.76
2022-09-28T04:08:38.462Z,98752.95
2022-09-28T04:11:12.260Z,98748.41
2022-09-28T04:13:46.152Z,98755.18
2022-09-28T04:16:20.026Z,98758.73
2022-09-28T04:19:04.680Z,98756.38
2022-09-28T04:21:54.232Z,98762.14
2022-09-28T04:24:28.635Z,98764.06
2022-09-28T04:27:23.373Z,98761.52
2022-09-28T04:29:56.503Z,98768.94
2022-09-28T04:32:29.231Z,98777.38
2022-09-28T04:35:02.442Z,98771.90
2022-09-28T04:37:35.911Z,98783.89
2022-09-28T04:40:09.707Z,98782.50
2022-09-28T04:42:43.369Z,98782.99
2022-09-28T04:45:15.999Z,98787.50
2022-09-28T04:47:50.909Z,98789.30
2022-09-28T04:50:45.821Z,98797.00
2022-09-28T04:53:26.081Z,98790.21
2022-09-28T04:56:06.312Z,98789.98
2022-09-28T04:58:39.826Z,98792.35
2022-09-28T05:01:18.943Z,98793.93
2022-09-28T05:04:03.569Z,98796.11
2022-09-28T05:06:53.328Z,98795.60
2022-09-28T05:09:26.067Z,98806.73
2022-09-28T05:11:59.572Z,98811.60
2022-09-28T05:14:32.351Z,98821.31
2022-09-28T05:17:05.239Z,98823.00
2022-09-28T05:20:03.221Z,98823.77
2022-09-28T05:22:36.934Z,98825.86
2022-09-28T05:25:11.453Z,98817.30
2022-09-28T05:28:02.165Z,98827.58
2022-09-28T05:30:48.420Z,98823.88
2022-09-28T05:33:38.112Z,98815.48
2022-09-28T05:36:20.391Z,98824.35
2022-09-28T05:38:53.643Z,98822.84
2022-09-28T05:41:26.970Z,98800.16
2022-09-28T05:44:01.698Z,98817.24
2022-09-28T05:46:36.378Z,98810.28
2022-09-28T05:49:09.779Z,98809.88
2022-09-28T05:51:43.501Z,98803.69
2022-09-28T05:54:17.979Z,98797.85
2022-09-28T05:56:54.301Z,98801.98
2022-09-28T05:59:27.502Z,98808.20
2022-09-28T06:02:00.890Z,98811.17
2022-09-28T06:04:34.332Z,98812.23
2022-09-28T06:07:07.961Z,98810.60
2022-09-28T06:09:40.920Z,98810.67
2022-09-28T06:12:17.184Z,98803.77
2022-09-28T06:14:54.159Z,98809.66
2022-09-28T06:17:28.349Z,98809.86
2022-09-28T06:20:23.114Z,98812.31
2022-09-28T06:23:14.790Z,98818.18
2022-09-28T06:25:48.660Z,98820.19
2022-09-28T06:28:22.667Z,98820.09
2022-09-28T06:30:58.441Z,98816.20
2022-09-28T06:33:32.002Z,98821.57
2022-09-28T06:36:05.207Z,98824.95
2022-09-28T06:38:39.054Z,98828.70
2022-09-28T06:41:13.719Z,98827.96
2022-09-28T06:43:49.580Z,98823.59
2022-09-28T06:46:56.587Z,98835.63
2022-09-28T06:49:57.447Z,98826.71
2022-09-28T06:52:59.465Z,98836.29
2022-09-28T06:55:54.613Z,98841.92
2022-09-28T06:58:29.073Z,98842.92
2022-09-28T07:01:06.113Z,98843.97
2022-09-28T07:03:55.813Z,98845.61
2022-09-28T07:06:51.823Z,98847.12
2022-09-28T07:09:56.670Z,98851.47
2022-09-28T07:12:53.487Z,98860.83
2022-09-28T07:15:39.452Z,98868.88
2022-09-28T07:18:14.254Z,98874.49
2022-09-28T07:20:54.168Z,98878.27
2022-09-28T07:23:49.987Z,98869.44
2022-09-28T07:26:34.002Z,98862.14
2022-09-28T07:29:18.201Z,98883.10
2022-09-28T07:32:27.185Z,98887.02
2022-09-28T07:35:26.556Z,98878.24
2022-09-28T07:38:07.129Z,98880.83
2022-09-28T07:40:59.722Z,98884.31
2022-09-28T07:43:33.305Z,98876.89
2022-09-28T07:46:11.137Z,98885.94
2022-09-28T07:48:50.203Z,98889.02
2022-09-28T07:51:35.167Z,98888.96
2022-09-28T07:54:26.416Z,98897.50
2022-09-28T07:57:27.784Z,98892.19
2022-09-28T08:00:20.235Z,98889.95
2022-09-28T08:02:53.708Z,98876.77
2022-09-28T08:05:32.907Z,98881.56
2022-09-28T08:08:06.560Z,98888.09
2022-09-28T08:10:44.436Z,98883.78
2022-09-28T08:13:56.574Z,98880.83
2022-09-28T08:17:12.730Z,98869.20
2022-09-28T08:20:17.925Z,98865.40
2022-09-28T08:22:51.547Z,98875.23
2022-09-28T08:25:25.614Z,98878.04
2022-09-28T08:28:00.456Z,98885.57
2022-09-28T08:30:35.967Z,98887.69
2022-09-28T08:33:30.079Z,98881.76
2022-09-28T08:36:24.817Z,98872.27
2022-09-28T08:39:17.265Z,98887.27
2022-09-28T08:42:41.939Z,98886.98
2022-09-28T08:45:36.957Z,98891.26
2022-09-28T08:49:01.401Z,98884.81
2022-09-28T08:52:08.311Z,98893.96
2022-09-28T08:55:07.682Z,98895.31
2022-09-28T08:57:53.163Z,98896.03
2022-09-28T09:00:37.355Z,98894.16
2022-09-28T09:03:15.199Z,98900.28
2022-09-28T09:06:29.424Z,98903.19
2022-09-28T09:09:19.893Z,98905.44
2022-09-28T09:12:01.319Z,98907.59
2022-09-28T09:15:07.972Z,98910.21
2022-09-28T09:17:56.844Z,98905.28
2022-09-28T09:21:07.282Z,98912.55
2022-09-28T09:23:57.465Z,98906.59
2022-09-28T09:26:42.657Z,98903.56
2022-09-28T09:29:50.739Z,98905.89
2022-09-28T09:32:44.071Z,98907.64
2022-09-28T09:35:32.299Z,98897.47
2022-09-28T09:38:37.742Z,98899.09
2022-09-28T09:41:51.635Z,98903.16
2022-09-28T09:45:07.219Z,98904.65
2022-09-28T09:48:24.405Z,98904.25
2022-09-28T09:51:06.763Z,98901.94
2022-09-28T09:53:49.695Z,98902.97
2022-09-28T09:56:30.295Z,98907.04
2022-09-28T09:59:19.743Z,98909.90
2022-09-28T10:02:41.646Z,98910.98
2022-09-28T10:05:30.541Z,98910.41
2022-09-28T10:08:12.843Z,98909.75
2022-09-28T10:11:08.399Z,98893.59
2022-09-28T10:13:43.649Z,98903.05
2022-09-28T10:16:38.952Z,98913.27
2022-09-28T10:19:17.569Z,98912.33
2022-09-28T10:22:00.712Z,98906.39
2022-09-28T10:24:44.306Z,98910.75
2022-09-28T10:27:25.418Z,98907.81
2022-09-28T10:30:03.371Z,98906.89
2022-09-28T10:32:45.143Z,98909.74
2022-09-28T10:35:22.194Z,98917.98
2022-09-28T10:38:05.701Z,98916.64
2022-09-28T10:41:11.730Z,98913.00
2022-09-28T10:44:11.634Z,98911.20
2022-09-28T10:47:10.071Z,98902.88
2022-09-28T10:49:48.022Z,98913.03
2022-09-28T10:52:46.788Z,98909.37
2022-09-28T10:55:39.585Z,98908.02
2022-09-28T10:58:38.476Z,98914.00
2022-09-28T11:01:20.682Z,98912.60
2022-09-28T11:03:59.078Z,98901.62
2022-09-28T11:06:43.103Z,98890.92
2022-09-28T11:09:46.563Z,98888.93
2022-09-28T11:12:27.764Z,98883.48
2022-09-28T11:15:08.254Z,98887.02
2022-09-28T11:17:43.348Z,98880.40
2022-09-28T11:20:28.756Z,98878.89
2022-09-28T11:23:23.020Z,98880.37
2022-09-28T11:26:18.973Z,98876.88
2022-09-28T11:28:55.798Z,98884.27
2022-09-28T11:31:40.308Z,98888.02
2022-09-28T11:34:47.787Z,98896.58
2022-09-28T11:37:39.328Z,98898.91
2022-09-28T11:40:32.563Z,98895.70
2022-09-28T11:43:20.487Z,98895.81
2022-09-28T11:45:56.079Z,98886.58
2022-09-28T11:48:51.381Z,98889.52
2022-09-28T11:51:33.839Z,98889.98
2022-09-28T11:54:27.216Z,98893.20
2022-09-28T11:57:05.914Z,98888.21
2022-09-28T11:59:53.464Z,98896.74
2022-09-28T12:02:36.005Z,98897.77
2022-09-28T12:05:21.751Z,98902.59
2022-09-28T12:08:06.193Z,98903.34
2022-09-28T12:11:16.176Z,98896.61
2022-09-28T12:14:25.437Z,98900.36
2022-09-28T12:17:23.559Z,98907.45
2022-09-28T12:20:06.022Z,98912.45
2022-09-28T12:22:46.758Z,98910.70
2022-09-28T12:25:25.214Z,98919.48
2022-09-28T12:28:10.136Z,98921.55
2022-09-28T12:30:45.863Z,98922.98
2022-09-28T12:33:18.914Z,98915.77
2022-09-28T12:36:31.542Z,98920.91
2022-09-28T12:39:46.923Z,98929.77
2022-09-28T12:42:44.668Z,98938.25
2022-09-28T12:46:10.426Z,98930.17
2022-09-28T12:50:07.212Z,98934.74
2022-09-28T12:52:31.668Z,98946.98
2022-09-28T12:55:22.552Z,98946.48
2022-09-28T12:58:37.973Z,98940.02
2022-09-28T13:01:33.832Z,98951.85
2022-09-28T13:04:29.793Z,98955.61
2022-09-28T13:07:25.812Z,98956.29
2022-09-28T13:10:11.568Z,98961.23
2022-09-28T13:13:02.133Z,98962.58
2022-09-28T13:15:56.292Z,98966.41
2022-09-28T13:18:49.307Z,98970.27
2022-09-28T13:21:39.146Z,98970.23
2022-09-28T13:24:31.646Z,98966.04
2022-09-28T13:27:32.138Z,98954.78
2022-09-28T13:30:08.644Z,98955.84
2022-09-28T13:32:43.865Z,98970.68
2022-09-28T13:35:20.942Z,98978.20
2022-09-28T13:38:21.862Z,98978.55
2022-09-28T13:41:10.389Z,98980.39
2022-09-28T13:44:17.113Z,98982.25
2022-09-28T13:47:21.739Z,98969.34
2022-09-28T13:50:26.042Z,98981.49
2022-09-28T13:53:27.507Z,98987.23
2022-09-28T13:56:25.879Z,98990.59
2022-09-28T13:59:16.858Z,98986.84
2022-09-28T14:02:06.830Z,98997.30
2022-09-28T14:05:00.672Z,98997.66
2022-09-28T14:07:39.423Z,99009.80
2022-09-28T14:10:21.435Z,99011.55
2022-09-28T14:12:53.851Z,99012.55
2022-09-28T14:15:32.564Z,99008.34
2022-09-28T14:18:12.489Z,99015.27
2022-09-28T14:21:08.944Z,99014.65
2022-09-28T14:24:14.338Z,99016.21
2022-09-28T14:26:56.747Z,99014.74
2022-09-28T14:29:40.817Z,99015.51
2022-09-28T14:32:13.409Z,99011.17
2022-09-28T14:34:50.053Z,99016.23
2022-09-28T14:37:55.228Z,99011.58
2022-09-28T14:41:10.831Z,99022.52
2022-09-28T14:43:49.894Z,99020.43
2022-09-28T14:46:31.900Z,99012.54
2022-09-28T14:49:29.044Z,99022.42
2022-09-28T14:52:05.205Z,99031.27
2022-09-28T14:55:03.811Z,99031.55
2022-09-28T14:57:37.700Z,99034.92
2022-09-28T15:00:32.967Z,99037.96
2022-09-28T15:03:12.132Z,99043.18
2022-09-28T15:05:49.945Z,99050.14
2022-09-28T15:08:25.487Z,99046.34
2022-09-28T15:11:02.530Z,99053.90
2022-09-28T15:13:35.759Z,99053.42
2022-09-28T15:16:15.206Z,99070.96
2022-09-28T15:19:00.224Z,99068.90
2022-09-28T15:21:41.642Z,99083.45
2022-09-28T15:24:33.197Z,99080.89
2022-09-28T15:27:19.433Z,99086.11
2022-09-28T15:30:19.800Z,99093.70
2022-09-28T15:32:55.300Z,99106.98
2022-09-28T15:35:30.570Z,99103.77
2022-09-28T15:38:04.904Z,99110.70
2022-09-28T15:40:41.373Z,99109.59
2022-09-28T15:43:34.817Z,99116.13
2022-09-28T15:46:23.324Z,99114.02
2022-09-28T15:49:00.173Z,99124.31
2022-09-28T15:51:36.274Z,99127.64
2022-09-28T15:54:24.527Z,99121.73
2022-09-28T15:57:02.962Z,99131.88
2022-09-28T15:59:38.867Z,99135.86
2022-09-28T16:02:24.801Z,99135.84
2022-09-28T16:05:02.671Z,99137.23
2022-09-28T16:07:43.845Z,99135.57
2022-09-28T16:10:17.444Z,99146.40
2022-09-28T16:12:57.158Z,99140.61
2022-09-28T16:15:38.910Z,99152.06
2022-09-28T16:18:21.939Z,99153.73
2022-09-28T16:21:07.747Z,99156.39
2022-09-28T16:23:42.083Z,99155.40
2022-09-28T16:26:31.878Z,99152.89
2022-09-28T16:29:27.978Z,99155.80
2022-09-28T16:32:23.801Z,99171.78
2022-09-28T16:35:20.557Z,99174.68
2022-09-28T16:38:09.651Z,99165.10
2022-09-28T16:40:54.535Z,99167.81
2022-09-28T16:43:37.059Z,99178.49
2022-09-28T16:46:16.955Z,99182.15
2022-09-28T16:48:56.880Z,99197.61
2022-09-28T16:51:30.715Z,99184.52
2022-09-28T16:54:42.976Z,99202.94
2022-09-28T16:57:16.991Z,99209.78
2022-09-28T16:59:50.229Z,99214.71
2022-09-28T17:02:46.765Z,99198.67
2022-09-28T17:05:24.061Z,99210.21
2022-09-28T17:08:04.804Z,99225.77
2022-09-28T17:11:13.064Z,99234.48
2022-09-28T17:13:44.688Z,99236.48
2022-09-28T17:16:42.675Z,99233.23
2022-09-28T17:19:29.688Z,99239.69
2022-09-28T17:22:04.247Z,99235.32
2022-09-28T17:24:38.106Z,99234.55
2022-09-28T17:27:17.834Z,99243.41
2022-09-28T17:29:55.154Z,99242.15
2022-09-28T17:32:29.289Z,99243.70
2022-09-28T17:35:22.996Z,99243.45
2022-09-28T17:37:57.852Z,99236.83
2022-09-28T17:43:23.278Z,99253.98
2022-09-28T17:45:57.003Z,99257.74
2022-09-28T17:48:31.627Z,99259.31
2022-09-28T17:51:06.428Z,99255.27
2022-09-28T17:53:40.814Z,99255.61
2022-09-28T17:56:14.433Z,99254.66
2022-09-28T17:58:48.717Z,99253.45
2022-09-28T18:01:22.561Z,99255.02
2022-09-28T18:03:55.573Z,99253.65
2022-09-28T18:06:28.644Z,99245.83
2022-09-28T18:09:03.289Z,99259.00
2022-09-28T18:11:43.300Z,99262.90
2022-09-28T18:14:16.874Z,99268.79
2022-09-28T18:16:51.909Z,99267.98
2022-09-28T18:19:28.596Z,99270.81
2022-09-28T18:22:06.297Z,99264.81
2022-09-28T18:24:39.458Z,99277.54
2022-09-28T18:27:12.514Z,99280.49
2022-09-28T18:29:48.469Z,99283.14
2022-09-28T18:32:21.464Z,99275.42
2022-09-28T18:35:22.919Z,99278.48
2022-09-28T18:37:56.441Z,99285.95
2022-09-28T18:40:30.582Z,99288.24
2022-09-28T18:43:03.670Z,99288.41
2022-09-28T18:45:38.811Z,99291.52
2022-09-28T18:48:11.933Z,99299.20
2022-09-28T18:50:46.126Z,99303.56
2022-09-28T18:53:20.433Z,99296.49
2022-09-28T18:55:53.507Z,99295.96
2022-09-28T18:58:27.667Z,99301.69
2022-09-28T19:01:28.027Z,99301.19
2022-09-28T19:03:56.322Z,99305.45
2022-09-28T19:06:30.408Z,99302.53
2022-09-28T19:09:04.385Z,99298.54
2022-09-28T19:11:38.106Z,99287.78
2022-09-28T19:14:15.809Z,99294.80
2022-09-28T19:16:48.734Z,99307.05
2022-09-28T19:19:23.042Z,99311.35
2022-09-28T19:21:58.208Z,99312.63
2022-09-28T19:24:31.469Z,99311.13
2022-09-28T19:27:04.683Z,99309.34
2022-09-28T19:29:37.483Z,99310.42
2022-09-28T19:32:12.772Z,99307.75
2022-09-28T19:34:45.821Z,99315.77
2022-09-28T19:37:18.714Z,99316.36
2022-09-28T19:39:51.446Z,99317.52
2022-09-28T19:42:25.789Z,99316.02
2022-09-28T19:44:58.591Z,99324.28
2022-09-28T19:47:32.264Z,99329.45
2022-09-28T19:50:05.941Z,99334.94
2022-09-28T19:52:38.607Z,99336.88
2022-09-28T19:55:39.143Z,99338.48
2022-09-28T19:58:12.714Z,99341.33
2022-09-28T20:00:45.665Z,99335.89
2022-09-28T20:03:19.007Z,99328.44
2022-09-28T20:05:58.076Z,99325.88
2022-09-28T20:08:34.165Z,99324.10
2022-09-28T20:11:10.019Z,99325.76
2022-09-28T20:13:42.882Z,99325.70
2022-09-28T20:16:18.020Z,99336.45
2022-09-28T20:18:52.151Z,99334.45
2022-09-28T20:21:26.955Z,99327.14
2022-09-28T20:23:59.889Z,99327.62
2022-09-28T20:26:37.746Z,99328.95
2022-09-28T20:29:11.030Z,99327.69
2022-09-28T20:31:44.831Z,99325.16
2022-09-28T20:34:17.613Z,99329.13
2022-09-28T20:36:50.163Z,99338.92
2022-09-28T20:39:23.052Z,99340.13
2022-09-28T20:41:56.622Z,99334.02
2022-09-28T20:44:29.806Z,99336.05
2022-09-28T20:47:03.890Z,99336.84
2022-09-28T20:49:37.246Z,99334.65
2022-09-28T20:52:11.505Z,99337.00
2022-09-28T20:54:44.409Z,99328.52
2022-09-28T20:57:20.805Z,99339.69
2022-09-28T20:59:54.847Z,99329.83
2022-09-28T21:02:27.474Z,99336.65
2022-09-28T21:05:00.550Z,99332.96
2022-09-28T21:07:33.416Z,99333.36
2022-09-28T21:10:06.906Z,99344.90
2022-09-28T21:12:40.316Z,99340.41
2022-09-28T21:15:13.701Z,99351.95
2022-09-28T21:17:47.192Z,99352.45
2022-09-28T21:20:20.188Z,99359.48
2022-09-28T21:22:54.787Z,99359.34
2022-09-28T21:25:30.148Z,99358.73
2022-09-28T21:28:07.059Z,99360.77
2022-09-28T21:30:39.838Z,99363.98
2022-09-28T21:33:12.821Z,99363.42
2022-09-28T21:35:45.795Z,99367.98
2022-09-28T21:38:18.665Z,99353.09
2022-09-28T21:40:56.625Z,99351.09
2022-09-28T21:43:31.865Z,99359.64
2022-09-28T21:46:04.991Z,99357.93
2022-09-28T21:48:37.827Z,99358.06
2022-09-28T21:51:14.837Z,99365.20
2022-09-28T21:53:50.192Z,99366.35
2022-09-28T21:56:23.754Z,99365.16
2022-09-28T21:58:56.875Z,99368.27
2022-09-28T22:01:29.956Z,99376.92
2022-09-28T22:04:06.037Z,99380.33
2022-09-28T22:06:39.307Z,99384.31
2022-09-28T22:09:12.651Z,99385.33
2022-09-28T22:11:46.136Z,99371.50
2022-09-28T22:14:19.022Z,99382.77
2022-09-28T22:16:52.099Z,99377.50
2022-09-28T22:19:25.238Z,99382.77
2022-09-28T22:22:02.319Z,99384.30
2022-09-28T22:24:35.334Z,99378.74
2022-09-28T22:27:11.345Z,99384.73
2022-09-28T22:29:45.625Z,99387.55
2022-09-28T22:32:19.118Z,99385.17
2022-09-28T22:34:52.230Z,99387.36
2022-09-28T22:37:28.710Z,99379.98
2022-09-28T22:40:01.951Z,99381.40
2022-09-28T22:42:35.199Z,99382.07
2022-09-28T22:45:09.871Z,99382.89
2022-09-28T22:47:43.487Z,99392.85
2022-09-28T22:50:16.761Z,99392.56
2022-09-28T22:52:51.661Z,99380.61
2022-09-28T22:55:24.559Z,99387.27
2022-09-28T22:57:57.354Z,99383.56
2022-09-28T23:00:31.186Z,99389.09
2022-09-28T23:03:05.228Z,99390.23
2022-09-28T23:05:38.656Z,99394.46
2022-09-28T23:08:11.284Z,99393.81
2022-09-28T23:10:45.107Z,99402.11
2022-09-28T23:13:18.263Z,99400.59
2022-09-28T23:16:08.267Z,99398.45
2022-09-28T23:18:42.664Z,99402.08
2022-09-28T23:21:16.900Z,99404.67
2022-09-28T23:24:01.795Z,99404.92
2022-09-28T23:26:37.487Z,99400.86
2022-09-28T23:29:12.822Z,99400.48
2022-09-28T23:31:46.051Z,99418.20
2022-09-28T23:34:19.287Z,99422.83
2022-09-28T23:36:55.034Z,99418.55
2022-09-28T23:39:31.225Z,99411.89
2022-09-28T23:42:04.381Z,99411.85
2022-09-28T23:44:37.730Z,99404.53
2022-09-28T23:47:10.779Z,99406.29
2022-09-28T23:49:44.052Z,99410.72
2022-09-28T23:52:17.264Z,99407.61
2022-09-28T23:54:50.305Z,99406.39
2022-09-28T23:57:23.536Z,99405.29
2022-09-28T23:59:56.277Z,99407.77
